Artesia Camp, New Mexico
Current Conditions -  °F | °C
As of 9:55 AM on Monday 22 Dec 2014 (Local Time) from KALM Reporting Station
Clear Clear  
Wind Chill:   Ceiling: Unl
Heat Index:   Visibility: 10mi
Dew Point:   Wind: 0mph
Humidity: 57%   Direction: NA
Pressure: 29.9"   Gusts: NA
Location:  32.7847°N, 105.644°W
Report Text: KALM 221655Z AUTO 00000KT 10SM CLR 08/00 A2990 RMK AO2
Loading
Personal Weather Stations






























Interactive Weather Map New forecast layout! Learn more

10-Day Weather Forecast

Advertisements
Track Severe Weather on mobile